createdAt,value
2022-10-23T00:04:47.595Z,68.22
2022-10-23T00:09:50.991Z,68.45
2022-10-23T00:14:55.809Z,68.00
2022-10-23T00:19:59.177Z,67.78
2022-10-23T00:25:02.687Z,68.20
2022-10-23T00:30:09.194Z,68.35
2022-10-23T00:35:12.742Z,67.87
2022-10-23T00:40:16.259Z,67.91
2022-10-23T00:45:25.720Z,67.61
2022-10-23T00:50:31.312Z,68.22
2022-10-23T00:55:38.401Z,67.56
2022-10-23T01:00:49.647Z,68.37
2022-10-23T01:05:58.360Z,67.86
2022-10-23T01:11:11.848Z,67.95
2022-10-23T01:16:22.324Z,68.20
2022-10-23T01:21:34.106Z,67.55
2022-10-23T01:26:49.046Z,67.59
2022-10-23T01:31:59.669Z,68.52
2022-10-23T01:37:05.369Z,68.41
2022-10-23T01:42:12.856Z,68.97
2022-10-23T01:52:25.308Z,69.25
2022-10-23T01:57:32.434Z,69.59
2022-10-23T02:02:39.081Z,69.33
2022-10-23T02:07:42.794Z,70.03
2022-10-23T02:12:56.139Z,70.84
2022-10-23T02:18:36.130Z,70.72
2022-10-23T02:23:45.728Z,71.06
2022-10-23T02:28:53.275Z,70.78
2022-10-23T02:33:58.422Z,71.18
2022-10-23T02:39:01.788Z,70.85
2022-10-23T02:44:20.140Z,71.39
2022-10-23T02:49:33.161Z,71.97
2022-10-23T02:54:52.294Z,72.55
2022-10-23T03:00:03.572Z,72.50
2022-10-23T03:05:13.730Z,72.09
2022-10-23T03:10:17.506Z,71.61
2022-10-23T03:15:20.844Z,72.18
2022-10-23T03:20:25.825Z,72.06
2022-10-23T03:25:29.907Z,71.42
2022-10-23T03:30:33.265Z,71.69
2022-10-23T03:35:38.077Z,72.60
2022-10-23T03:40:41.263Z,71.86
2022-10-23T03:45:44.680Z,72.57
2022-10-23T03:50:49.420Z,72.86
2022-10-23T03:55:52.732Z,72.33
2022-10-23T04:00:56.368Z,71.94
2022-10-23T04:06:01.865Z,72.05
2022-10-23T04:11:05.367Z,72.28
2022-10-23T04:16:09.010Z,72.45
2022-10-23T04:21:13.794Z,71.90
2022-10-23T04:26:17.330Z,71.73
2022-10-23T04:31:20.806Z,72.22
2022-10-23T04:36:26.108Z,72.52
2022-10-23T04:41:29.580Z,72.70
2022-10-23T04:46:32.971Z,72.17
2022-10-23T04:51:38.650Z,72.17
2022-10-23T04:56:42.016Z,72.15
2022-10-23T05:01:45.839Z,71.31
2022-10-23T05:06:50.695Z,71.14
2022-10-23T05:11:53.774Z,70.30
2022-10-23T05:17:04.109Z,70.78
2022-10-23T05:22:10.042Z,70.16
2022-10-23T05:27:13.595Z,69.78
2022-10-23T05:32:18.063Z,69.52
2022-10-23T05:37:23.344Z,69.27
2022-10-23T05:42:26.814Z,69.84
2022-10-23T05:47:31.640Z,69.01
2022-10-23T05:52:36.186Z,69.05
2022-10-23T05:57:39.691Z,68.67
2022-10-23T06:02:43.271Z,68.33
2022-10-23T06:07:48.153Z,67.75
2022-10-23T06:12:52.186Z,65.52
2022-10-23T06:17:55.726Z,66.80
2022-10-23T06:23:00.599Z,66.48
2022-10-23T06:28:03.703Z,66.74
2022-10-23T06:33:06.971Z,66.38
2022-10-23T06:38:11.810Z,66.11
2022-10-23T06:43:14.907Z,65.45
2022-10-23T06:48:18.350Z,65.13
2022-10-23T06:53:24.911Z,65.48
2022-10-23T06:58:28.693Z,64.84
2022-10-23T07:03:32.064Z,64.73
2022-10-23T07:08:37.880Z,64.94
2022-10-23T07:13:42.729Z,65.28
2022-10-23T07:18:46.347Z,63.60
2022-10-23T07:23:51.095Z,63.66
2022-10-23T07:28:55.693Z,63.36
2022-10-23T07:33:59.201Z,63.29
2022-10-23T07:39:05.322Z,62.39
2022-10-23T07:44:08.872Z,62.43
2022-10-23T07:49:13.138Z,62.33
2022-10-23T07:54:17.871Z,61.66
2022-10-23T07:59:21.293Z,61.85
2022-10-23T08:04:25.037Z,62.31
2022-10-23T08:09:29.846Z,62.39
2022-10-23T08:14:32.994Z,61.73
2022-10-23T08:19:37.088Z,61.92
2022-10-23T08:24:41.861Z,61.86
2022-10-23T08:29:44.958Z,61.68
2022-10-23T08:34:48.648Z,62.03
2022-10-23T08:39:54.960Z,62.02
2022-10-23T08:45:06.897Z,62.40
2022-10-23T08:50:21.117Z,61.56
2022-10-23T08:55:31.422Z,62.19
2022-10-23T09:00:35.842Z,62.65
2022-10-23T09:05:54.425Z,62.68
2022-10-23T09:11:04.798Z,62.92
2022-10-23T09:16:16.132Z,63.67
2022-10-23T09:21:21.020Z,63.86
2022-10-23T09:26:25.542Z,63.77
2022-10-23T09:31:29.049Z,63.40
2022-10-23T09:36:34.525Z,63.34
2022-10-23T09:41:41.643Z,63.00
2022-10-23T09:46:47.551Z,63.17
2022-10-23T09:52:06.567Z,64.10
2022-10-23T09:57:24.123Z,63.93
2022-10-23T10:02:29.787Z,63.66
2022-10-23T10:07:35.959Z,63.67
2022-10-23T10:12:51.041Z,63.67
2022-10-23T10:18:04.870Z,63.62
2022-10-23T10:23:18.508Z,63.93
2022-10-23T10:28:39.897Z,63.82
2022-10-23T10:33:54.682Z,63.96
2022-10-23T10:39:01.827Z,63.84
2022-10-23T10:44:20.898Z,64.45
2022-10-23T10:49:30.542Z,64.39
2022-10-23T10:54:45.102Z,64.32
2022-10-23T10:59:57.437Z,65.50
2022-10-23T11:05:13.388Z,65.31
2022-10-23T11:10:19.189Z,65.95
2022-10-23T11:15:28.653Z,66.31
2022-10-23T11:20:46.233Z,67.09
2022-10-23T11:26:02.116Z,66.97
2022-10-23T11:31:18.508Z,66.61
2022-10-23T11:36:47.201Z,67.79
2022-10-23T11:41:54.774Z,66.70
2022-10-23T11:47:08.615Z,67.60
2022-10-23T11:52:26.450Z,69.70
2022-10-23T12:02:38.640Z,68.16
2022-10-23T12:07:43.500Z,69.28
2022-10-23T12:12:57.947Z,68.73
2022-10-23T12:18:16.082Z,69.09
2022-10-23T12:23:48.067Z,69.56
2022-10-23T12:29:00.599Z,69.34
2022-10-23T12:34:19.936Z,69.82
2022-10-23T12:39:27.382Z,69.27
2022-10-23T12:44:32.265Z,68.98
2022-10-23T12:49:36.838Z,70.65
2022-10-23T12:54:41.660Z,69.75
2022-10-23T12:59:46.056Z,70.62
2022-10-23T13:04:52.230Z,69.35
2022-10-23T13:09:56.833Z,69.76
2022-10-23T13:15:03.698Z,70.32
2022-10-23T13:20:22.318Z,71.59
2022-10-23T13:25:28.163Z,70.36
2022-10-23T13:30:33.760Z,71.13
2022-10-23T13:35:40.022Z,71.24
2022-10-23T13:40:43.396Z,70.42
2022-10-23T13:45:47.151Z,71.67
2022-10-23T13:50:52.070Z,71.07
2022-10-23T13:55:58.585Z,71.17
2022-10-23T14:01:04.545Z,71.49
2022-10-23T14:06:10.228Z,72.51
2022-10-23T14:16:21.880Z,71.83
2022-10-23T14:21:27.057Z,72.37
2022-10-23T14:26:30.639Z,71.47
2022-10-23T14:31:34.040Z,71.68
2022-10-23T14:36:49.775Z,71.65
2022-10-23T14:41:53.942Z,72.36
2022-10-23T14:46:57.297Z,71.92
2022-10-23T14:52:02.274Z,71.77
2022-10-23T14:57:06.262Z,72.17
2022-10-23T15:02:11.612Z,72.16
2022-10-23T15:07:16.397Z,71.87
2022-10-23T15:12:19.873Z,71.95
2022-10-23T15:17:23.531Z,72.36
2022-10-23T15:22:28.695Z,71.48
2022-10-23T15:27:32.083Z,72.02
2022-10-23T15:32:35.813Z,71.92
2022-10-23T15:37:40.793Z,72.03
2022-10-23T15:42:44.616Z,72.25
2022-10-23T15:47:48.235Z,71.56
2022-10-23T15:52:53.553Z,72.45
2022-10-23T15:58:02.042Z,71.71
2022-10-23T16:03:05.815Z,72.59
2022-10-23T16:08:10.752Z,72.37
2022-10-23T16:13:14.167Z,71.47
2022-10-23T16:18:18.864Z,71.17
2022-10-23T16:23:24.202Z,71.40
2022-10-23T16:28:28.017Z,71.78
2022-10-23T16:33:31.431Z,71.37
2022-10-23T16:38:37.238Z,71.47
2022-10-23T16:43:40.767Z,72.12
2022-10-23T16:48:44.412Z,71.95
2022-10-23T16:53:50.324Z,71.18
2022-10-23T16:58:54.057Z,71.21
2022-10-23T17:03:58.869Z,71.17
2022-10-23T17:09:04.951Z,71.33
2022-10-23T17:14:11.335Z,71.35
2022-10-23T17:19:40.028Z,70.55
2022-10-23T17:24:47.390Z,71.38
2022-10-23T17:29:53.588Z,71.48
2022-10-23T17:34:57.116Z,70.90
2022-10-23T17:40:03.643Z,71.06
2022-10-23T17:45:08.137Z,71.55
2022-10-23T17:50:13.964Z,70.87
2022-10-23T17:55:19.332Z,71.20
2022-10-23T18:00:23.005Z,71.70
2022-10-23T18:05:26.455Z,71.44
2022-10-23T18:10:31.318Z,70.53
2022-10-23T18:15:35.423Z,70.85
2022-10-23T18:20:42.733Z,71.33
2022-10-23T18:25:47.608Z,70.96
2022-10-23T18:30:56.164Z,71.48
2022-10-23T18:36:00.532Z,71.87
2022-10-23T18:41:05.550Z,71.46
2022-10-23T18:46:09.446Z,71.22
2022-10-23T18:51:17.384Z,71.04
2022-10-23T18:56:26.474Z,70.61
2022-10-23T19:01:31.330Z,71.43
2022-10-23T19:06:37.585Z,71.59
2022-10-23T19:11:43.764Z,71.45
2022-10-23T19:16:57.882Z,70.95
2022-10-23T19:22:03.569Z,71.02
2022-10-23T19:27:09.166Z,70.80
2022-10-23T19:32:13.165Z,71.22
2022-10-23T19:37:16.771Z,71.55
2022-10-23T19:42:21.729Z,70.91
2022-10-23T19:47:25.078Z,70.64
2022-10-23T19:52:28.688Z,71.10
2022-10-23T19:57:35.113Z,70.83
2022-10-23T20:02:38.543Z,71.15
2022-10-23T20:07:42.775Z,70.86
2022-10-23T20:12:56.878Z,70.48
2022-10-23T20:18:07.135Z,70.07
2022-10-23T20:23:10.891Z,69.92
2022-10-23T20:28:16.053Z,70.52
2022-10-23T20:33:19.449Z,70.02
2022-10-23T20:38:23.401Z,70.18
2022-10-23T20:43:28.186Z,69.72
2022-10-23T20:48:35.297Z,70.18
2022-10-23T20:53:39.872Z,70.12
2022-10-23T20:58:45.104Z,69.90
2022-10-23T21:03:52.117Z,69.66
2022-10-23T21:08:57.483Z,70.03
2022-10-23T21:14:04.635Z,69.86
2022-10-23T21:19:14.453Z,69.74
2022-10-23T21:24:18.688Z,69.90
2022-10-23T21:29:23.449Z,69.73
2022-10-23T21:34:27.570Z,69.66
2022-10-23T21:39:31.702Z,70.06
2022-10-23T21:44:36.639Z,69.99
2022-10-23T21:49:42.435Z,69.67
2022-10-23T21:54:45.777Z,69.65
2022-10-23T21:59:50.831Z,70.04
2022-10-23T22:04:54.462Z,69.68
2022-10-23T22:09:57.835Z,69.75
2022-10-23T22:15:02.649Z,69.43
2022-10-23T22:20:07.338Z,68.93
2022-10-23T22:25:11.351Z,69.56
2022-10-23T22:30:17.707Z,69.28
2022-10-23T22:35:20.873Z,68.67
2022-10-23T22:40:24.195Z,69.41
2022-10-23T22:45:29.007Z,69.70
2022-10-23T22:50:32.147Z,68.91
2022-10-23T22:55:36.775Z,69.50
2022-10-23T23:00:43.646Z,68.86
2022-10-23T23:05:49.072Z,69.29
2022-10-23T23:10:56.304Z,69.14
2022-10-23T23:16:01.210Z,68.61
2022-10-23T23:21:06.327Z,68.42
2022-10-23T23:26:10.070Z,68.70
2022-10-23T23:31:19.210Z,67.96
2022-10-23T23:36:24.328Z,68.87
2022-10-23T23:41:29.765Z,68.12
2022-10-23T23:46:34.657Z,68.18
2022-10-23T23:51:38.010Z,67.86
2022-10-23T23:56:41.481Z,68.33
